Time;durP1;ratioP1;P1;durP2;ratioP2;P2;SDS_P1;SDS_P2;PMS_P1;PMS_P2;Temp;Humidity;BMP_temperature;BMP_pressure;BME280_temperature;BME280_humidity;BME280_pressure;Samples;Min_cycle;Max_cycle;Signal;HPM_P1;HPM_P2
2022/10/04 00:01:29;;;;;;;4.03;1.30;;;;;;;9.83;63.35;94155.56;5146454;27;20041;-72
2022/10/04 00:04:08;;;;;;;1.42;1.13;;;;;;;9.81;63.42;94147.09;5146276;27;20276;-72
2022/10/04 00:06:36;;;;;;;2.83;1.30;;;;;;;9.82;63.34;94152.13;5146531;27;20027;-72
2022/10/04 00:09:16;;;;;;;4.72;1.40;;;;;;;9.83;63.19;94153.69;5146172;27;20149;-71
2022/10/04 00:11:47;;;;;;;3.40;1.15;;;;;;;9.85;63.13;94156.06;5146270;27;20193;-71
2022/10/04 00:14:24;;;;;;;1.70;1.00;;;;;;;9.74;62.95;94157.38;5127724;27;20329;-72
2022/10/04 00:16:50;;;;;;;3.47;1.10;;;;;;;9.73;63.16;94155.78;5146023;27;20093;-71
2022/10/04 00:19:18;;;;;;;7.28;2.55;;;;;;;9.68;62.79;94166.56;5146046;27;20022;-71
2022/10/04 00:21:56;;;;;;;3.00;1.30;;;;;;;9.72;62.66;94148.91;5145954;27;20031;-71
2022/10/04 00:24:23;;;;;;;2.67;1.35;;;;;;;9.66;62.42;94155.41;5145800;27;20079;-71
2022/10/04 00:26:48;;;;;;;4.65;1.40;;;;;;;9.68;62.24;94158.56;5146005;27;20030;-72
2022/10/04 00:29:43;;;;;;;2.22;1.10;;;;;;;9.68;62.23;94147.91;5145737;27;20050;-72
2022/10/04 00:32:11;;;;;;;3.72;1.05;;;;;;;9.71;61.55;94142.78;5128031;27;20053;-73
2022/10/04 00:34:52;;;;;;;2.30;0.93;;;;;;;9.67;60.77;94136.50;5145805;27;20027;-72
2022/10/04 00:37:20;;;;;;;2.47;0.88;;;;;;;9.73;61.12;94142.47;5146151;27;20087;-72
2022/10/04 00:40:46;;;;;;;2.05;1.00;;;;;;;9.68;61.71;94122.09;5145656;27;20026;-72
2022/10/04 00:43:28;;;;;;;5.20;1.25;;;;;;;9.64;61.72;94129.88;5053503;28;20137;-73
2022/10/04 00:46:06;;;;;;;4.53;1.02;;;;;;;9.60;62.08;94134.22;5062566;28;20052;-73
2022/10/04 00:48:34;;;;;;;1.70;1.00;;;;;;;9.65;61.85;94138.66;5130083;27;20023;-73
2022/10/04 00:51:05;;;;;;;5.57;1.40;;;;;;;9.61;61.54;94129.72;5145404;27;20018;-73
2022/10/04 00:53:46;;;;;;;1.85;1.05;;;;;;;9.56;61.50;94119.16;5145517;27;20336;-72
2022/10/04 00:56:19;;;;;;;3.05;1.00;;;;;;;9.56;61.28;94119.16;5145269;27;20027;-72
2022/10/04 00:59:03;;;;;;;1.27;0.88;;;;;;;9.56;60.44;94101.31;5145222;27;20019;-72
2022/10/04 01:01:34;;;;;;;1.48;0.80;;;;;;;9.55;59.58;94113.06;5145332;27;20220;-72
2022/10/04 01:04:03;;;;;;;3.78;1.23;;;;;;;9.58;59.49;94106.34;5145227;27;20029;-72
2022/10/04 01:06:29;;;;;;;1.20;0.73;;;;;;;9.65;59.42;94112.06;5145203;27;20053;-72
2022/10/04 01:09:02;;;;;;;2.22;0.93;;;;;;;9.54;59.48;94100.06;5145064;27;20020;-72
2022/10/04 01:11:33;;;;;;;5.43;0.95;;;;;;;9.52;60.06;94108.31;5145136;27;20018;-72
2022/10/04 01:14:11;;;;;;;3.03;1.08;;;;;;;9.48;60.54;94106.56;5144954;27;20023;-72
2022/10/04 01:16:37;;;;;;;4.38;1.00;;;;;;;9.38;61.02;94115.56;5144992;27;20031;-72
2022/10/04 01:19:21;;;;;;;2.92;1.00;;;;;;;9.38;60.71;94104.91;5144876;27;20023;-72
2022/10/04 01:21:56;;;;;;;2.00;1.10;;;;;;;9.33;59.67;94099.72;5145034;27;20250;-72
2022/10/04 01:24:21;;;;;;;6.60;1.10;;;;;;;9.33;59.22;94110.34;5144722;27;20064;-72
2022/10/04 01:26:47;;;;;;;2.08;1.00;;;;;;;9.33;59.25;94116.47;5144835;27;20027;-72
2022/10/04 01:29:31;;;;;;;2.00;0.93;;;;;;;9.36;59.62;94105.22;5144727;27;20043;-72
2022/10/04 01:31:59;;;;;;;1.45;0.98;;;;;;;9.37;59.35;94100.69;5144734;27;20019;-72
2022/10/04 01:34:29;;;;;;;6.47;1.17;;;;;;;9.39;59.37;94099.31;5144677;27;20021;-72
2022/10/04 01:36:59;;;;;;;1.92;0.82;;;;;;;9.38;58.84;94096.94;5144454;27;20045;-72
2022/10/04 01:39:27;;;;;;;2.75;1.08;;;;;;;9.35;58.94;94100.97;5144548;27;20021;-72
2022/10/04 01:42:05;;;;;;;2.83;0.65;;;;;;;9.32;58.58;94101.59;5144486;27;20026;-72
2022/10/04 01:45:32;;;;;;;2.33;1.00;;;;;;;9.34;58.63;94104.75;5144405;27;20023;-73
2022/10/04 01:48:07;;;;;;;2.42;0.95;;;;;;;9.31;59.23;94105.31;5132668;27;20030;-73
2022/10/04 01:50:40;;;;;;;2.72;1.00;;;;;;;9.29;58.85;94099.53;5144279;27;20038;-72
2022/10/04 01:53:22;;;;;;;1.90;0.85;;;;;;;9.29;58.81;94115.47;5143907;27;20217;-72
2022/10/04 01:55:51;;;;;;;1.77;0.90;;;;;;;9.26;58.67;94092.16;5144610;27;20325;-72
2022/10/04 01:58:31;;;;;;;3.95;0.90;;;;;;;9.29;58.88;94104.84;5144018;27;20054;-72
2022/10/04 02:01:06;;;;;;;3.80;1.10;;;;;;;9.24;59.47;94108.41;5144015;27;20344;-73
2022/10/04 02:03:37;;;;;;;2.63;0.90;;;;;;;9.22;59.80;94110.56;5144345;27;20011;-72
2022/10/04 02:06:06;;;;;;;5.85;1.00;;;;;;;9.19;60.49;94110.38;5144149;27;20038;-72
2022/10/04 02:08:36;;;;;;;1.90;0.93;;;;;;;9.15;60.68;94096.09;5144137;27;20019;-72
2022/10/04 02:11:03;;;;;;;1.73;0.90;;;;;;;9.20;60.60;94109.31;5144056;27;20054;-73
2022/10/04 02:13:34;;;;;;;1.88;1.00;;;;;;;9.26;60.57;94123.25;5144064;27;20347;-73
2022/10/04 02:16:02;;;;;;;4.40;0.80;;;;;;;9.19;61.46;94113.81;5143892;27;20224;-72
2022/10/04 02:18:30;;;;;;;4.00;1.00;;;;;;;9.16;61.92;94125.06;5143940;28;20063;-73
2022/10/04 02:20:57;;;;;;;1.40;0.88;;;;;;;9.15;62.31;94120.03;5143954;28;20019;-73
2022/10/04 02:23:23;;;;;;;1.80;1.35;;;;;;;9.20;62.82;94119.94;5143867;28;20087;-73
2022/10/04 02:25:49;;;;;;;3.08;1.10;;;;;;;9.16;63.19;94122.41;5143972;27;20018;-73
2022/10/04 02:28:17;;;;;;;1.50;1.00;;;;;;;9.18;63.17;94120.22;5143966;28;20072;-72
2022/10/04 02:32:56;;;;;;;2.50;0.90;;;;;;;9.21;63.32;94121.50;5143796;27;20109;-73
2022/10/04 02:33:37;;;;;;;1.40;1.10;;;;;;;9.23;63.26;94120.09;5143795;28;20085;-73
2022/10/04 02:36:07;;;;;;;7.70;0.77;;;;;;;9.20;63.62;94117.28;5143927;27;20213;-73
2022/10/04 02:38:40;;;;;;;1.73;0.90;;;;;;;9.13;63.96;94130.19;5143636;28;20015;-72
2022/10/04 02:41:36;;;;;;;3.50;1.10;;;;;;;9.12;64.35;94123.25;5143802;27;20027;-73
2022/10/04 02:44:20;;;;;;;6.18;1.17;;;;;;;9.13;64.59;94130.19;5143152;28;20106;-73
2022/10/04 02:47:18;;;;;;;3.53;1.45;;;;;;;9.13;64.85;94130.19;5143621;28;20027;-72
2022/10/04 02:49:48;;;;;;;2.80;1.23;;;;;;;9.09;65.09;94142.50;5125466;28;20054;-73
2022/10/04 02:52:21;;;;;;;2.28;1.17;;;;;;;9.09;64.80;94137.16;5143660;27;20309;-73
2022/10/04 02:54:59;;;;;;;1.63;0.90;;;;;;;9.02;64.43;94126.94;5143710;28;20058;-73
2022/10/04 02:57:27;;;;;;;2.70;1.02;;;;;;;9.09;64.40;94137.94;5143692;28;20023;-73
2022/10/04 03:00:03;;;;;;;2.65;1.23;;;;;;;9.16;64.47;94154.31;5143643;27;20039;-73
2022/10/04 03:02:29;;;;;;;1.75;1.00;;;;;;;9.17;64.55;94158.53;5143460;28;20031;-73
2022/10/04 03:05:05;;;;;;;2.45;1.42;;;;;;;9.15;64.64;94155.38;5143774;27;20030;-73
2022/10/04 03:07:33;;;;;;;1.90;1.08;;;;;;;9.16;64.23;94161.47;5147461;27;20023;-73
2022/10/04 03:10:00;;;;;;;1.98;1.00;;;;;;;9.11;64.51;94150.97;5147367;27;20039;-73
2022/10/04 03:12:26;;;;;;;3.80;1.10;;;;;;;9.18;64.62;94146.00;5147307;27;20381;-73
2022/10/04 03:14:53;;;;;;;1.33;0.80;;;;;;;9.14;64.55;94156.47;5147593;27;20086;-72
2022/10/04 03:17:19;;;;;;;2.72;0.95;;;;;;;9.07;64.67;94155.28;5147399;27;20095;-73
2022/10/04 03:19:48;;;;;;;2.10;1.02;;;;;;;9.08;64.66;94154.19;5147103;27;20086;-73
2022/10/04 03:22:14;;;;;;;1.70;1.15;;;;;;;9.03;64.45;94158.53;5147141;27;20026;-73
2022/10/04 03:24:45;;;;;;;1.77;1.02;;;;;;;8.99;64.81;94148.78;5147226;27;20015;-73
2022/10/04 03:27:19;;;;;;;1.10;0.80;;;;;;;8.96;64.81;94158.16;5147016;27;20023;-72
2022/10/04 03:29:45;;;;;;;2.33;1.00;;;;;;;9.04;64.81;94152.13;5146923;27;20103;-73
2022/10/04 03:32:16;;;;;;;1.38;0.95;;;;;;;8.97;64.96;94162.38;5146983;27;20019;-73
2022/10/04 03:35:06;;;;;;;2.58;0.70;;;;;;;8.97;64.46;94167.69;5147053;27;20023;-72
2022/10/04 03:37:36;;;;;;;1.83;1.02;;;;;;;8.97;63.90;94161.59;5147054;27;20031;-71
2022/10/04 03:40:07;;;;;;;1.63;1.00;;;;;;;8.99;64.24;94175.38;5146834;27;20045;-73
2022/10/04 03:42:35;;;;;;;1.23;0.90;;;;;;;8.90;64.79;94169.19;5146653;27;20380;-73
2022/10/04 03:45:05;;;;;;;4.90;1.08;;;;;;;8.92;65.21;94169.66;5146760;27;20068;-73
2022/10/04 03:47:40;;;;;;;3.30;1.05;;;;;;;8.88;64.92;94163.38;5146841;27;20030;-72
2022/10/04 03:50:17;;;;;;;3.42;1.10;;;;;;;8.84;64.78;94158.63;5146482;27;20044;-72
2022/10/04 03:52:50;;;;;;;3.97;1.17;;;;;;;8.84;64.97;94155.19;5146665;27;20038;-73
2022/10/04 03:55:17;;;;;;;1.90;1.10;;;;;;;8.82;64.79;94168.75;5146477;27;20049;-73
2022/10/04 03:57:43;;;;;;;5.45;1.20;;;;;;;8.84;64.91;94173.78;5146469;27;20200;-73
2022/10/04 04:00:13;;;;;;;1.85;1.23;;;;;;;8.92;64.57;94175.00;5146511;27;20019;-72
2022/10/04 04:03:01;;;;;;;2.10;1.33;;;;;;;8.84;64.93;94184.44;5146381;27;20065;-73
2022/10/04 04:05:52;;;;;;;3.25;1.20;;;;;;;8.91;65.06;94173.41;5146517;27;20027;-73
2022/10/04 04:08:35;;;;;;;3.40;1.00;;;;;;;8.96;64.29;94182.06;5146409;27;20095;-73
2022/10/04 04:11:03;;;;;;;6.22;1.33;;;;;;;8.85;64.35;94183.31;5146234;27;20033;-72
2022/10/04 04:14:04;;;;;;;2.22;1.00;;;;;;;8.90;64.39;94182.47;5146275;27;20019;-73
2022/10/04 04:16:30;;;;;;;6.55;1.40;;;;;;;8.83;64.28;94180.19;5134722;27;20042;-72
2022/10/04 04:19:00;;;;;;;3.45;0.93;;;;;;;8.85;63.71;94183.31;5146030;27;20030;-73
2022/10/04 04:21:27;;;;;;;2.63;1.10;;;;;;;8.84;63.37;94200.38;5145897;27;20031;-73
2022/10/04 04:24:00;;;;;;;2.75;1.20;;;;;;;8.89;63.53;94202.16;5145922;27;20026;-72
2022/10/04 04:26:31;;;;;;;4.45;1.02;;;;;;;8.85;63.13;94201.94;5145963;27;20023;-72
2022/10/04 04:29:02;;;;;;;1.97;1.10;;;;;;;8.90;63.46;94201.06;5145625;27;20101;-72
2022/10/04 04:31:41;;;;;;;2.25;1.15;;;;;;;8.92;63.51;94197.03;5146034;27;20229;-73
2022/10/04 04:34:21;;;;;;;4.00;1.38;;;;;;;8.85;63.49;94204.59;5145508;27;20031;-72
2022/10/04 04:36:47;;;;;;;1.92;1.00;;;;;;;8.80;63.90;94202.81;5145709;27;20022;-73
2022/10/04 04:42:27;;;;;;;3.67;1.30;;;;;;;8.83;64.31;94210.22;5111305;27;20242;-72
2022/10/04 04:44:55;;;;;;;2.50;1.88;;;;;;;8.80;64.50;94210.00;5145438;27;20094;-72
2022/10/04 04:47:34;;;;;;;2.70;1.42;;;;;;;8.79;64.33;94209.22;5145252;27;20296;-72
2022/10/04 04:50:17;;;;;;;4.13;1.27;;;;;;;8.82;64.43;94218.47;5145384;27;20070;-72
2022/10/04 04:52:57;;;;;;;2.53;1.17;;;;;;;8.82;64.30;94223.81;5145491;27;20034;-73
2022/10/04 04:55:29;;;;;;;2.88;1.63;;;;;;;8.80;64.73;94223.31;5145368;27;20098;-73
2022/10/04 04:57:57;;;;;;;3.60;1.13;;;;;;;8.85;64.86;94217.88;5145250;27;20027;-73
2022/10/04 05:00:28;;;;;;;3.13;1.63;;;;;;;8.88;64.88;94221.84;5145110;27;20027;-73
2022/10/04 05:02:56;;;;;;;6.15;1.40;;;;;;;8.85;64.32;94223.19;5145285;27;20094;-73
2022/10/04 05:05:29;;;;;;;10.55;1.45;;;;;;;8.86;64.17;94219.47;5145136;27;20099;-74
2022/10/04 05:08:26;;;;;;;3.45;1.50;;;;;;;8.89;64.47;94234.81;5145070;27;20022;-73
2022/10/04 05:11:07;;;;;;;3.40;1.13;;;;;;;8.91;64.49;94223.91;5145137;27;20023;-73
2022/10/04 05:13:44;;;;;;;2.47;1.58;;;;;;;8.92;64.66;94228.94;5145115;27;20026;-73
2022/10/04 05:16:14;;;;;;;4.60;1.48;;;;;;;8.96;64.75;94227.28;5145003;27;20303;-73
2022/10/04 05:18:40;;;;;;;3.33;1.52;;;;;;;9.06;64.65;94220.16;5144797;27;20021;-73
2022/10/04 05:21:17;;;;;;;5.43;1.40;;;;;;;9.09;64.53;94239.00;5144807;27;20332;-73
2022/10/04 05:23:42;;;;;;;2.22;1.20;;;;;;;9.06;64.26;94225.50;5144974;27;20046;-73
2022/10/04 05:26:13;;;;;;;2.20;1.38;;;;;;;9.14;64.49;94235.44;5144698;27;20055;-73
2022/10/04 05:28:39;;;;;;;5.22;1.70;;;;;;;9.11;64.25;94228.84;5144142;27;20332;-73
2022/10/04 05:31:11;;;;;;;1.95;1.10;;;;;;;9.06;64.17;94233.47;5144523;27;20031;-73
2022/10/04 05:33:49;;;;;;;2.50;1.10;;;;;;;9.13;64.10;94229.34;5144619;27;20030;-73
2022/10/04 05:36:45;;;;;;;2.80;1.27;;;;;;;9.11;63.96;94244.03;5144792;27;20027;-73
2022/10/04 05:39:13;;;;;;;1.73;1.20;;;;;;;9.08;64.27;94237.44;5144351;27;20190;-73
2022/10/04 05:41:45;;;;;;;3.50;1.45;;;;;;;9.10;64.20;94245.91;5144305;27;20221;-73
2022/10/04 05:44:45;;;;;;;9.75;1.50;;;;;;;9.01;64.01;94240.47;5144560;27;20033;-73
2022/10/04 05:47:16;;;;;;;2.92;1.27;;;;;;;8.97;63.74;94247.44;5117874;27;20251;-73
2022/10/04 05:49:47;;;;;;;2.10;1.25;;;;;;;9.02;63.74;94252.69;5144307;27;20015;-73
2022/10/04 05:52:23;;;;;;;1.73;1.25;;;;;;;9.14;63.78;94243.41;5144148;27;20023;-73
2022/10/04 05:55:11;;;;;;;1.70;1.10;;;;;;;9.26;62.94;94258.91;5144466;27;20219;-73
2022/10/04 05:58:09;;;;;;;3.08;1.42;;;;;;;9.27;63.36;94255.97;5143850;27;20041;-73
2022/10/04 06:00:53;;;;;;;4.22;1.20;;;;;;;9.33;62.96;94270.75;5143873;27;20120;-73
2022/10/04 06:03:44;;;;;;;3.10;1.30;;;;;;;9.34;63.17;94269.69;5144029;27;20031;-73
2022/10/04 06:06:27;;;;;;;7.50;1.70;;;;;;;9.35;62.34;94276.56;5144028;27;20030;-73
2022/10/04 06:09:25;;;;;;;6.97;1.10;;;;;;;9.30;62.11;94271.34;5144056;27;20043;-73
2022/10/04 06:12:32;;;;;;;2.95;1.27;;;;;;;9.36;62.13;94280.81;5098546;27;20059;-74
2022/10/04 06:15:15;;;;;;;2.47;1.00;;;;;;;9.50;61.52;94290.66;5143626;27;20041;-73
2022/10/04 06:17:41;;;;;;;2.13;1.25;;;;;;;9.57;61.42;94285.75;5143712;27;20042;-73
2022/10/04 06:20:44;;;;;;;1.70;1.17;;;;;;;9.67;61.17;94300.69;5143652;28;20158;-74
2022/10/04 06:23:16;;;;;;;6.45;1.75;;;;;;;9.76;60.41;94302.38;5118662;28;20110;-74
2022/10/04 06:25:58;;;;;;;3.72;1.50;;;;;;;9.79;60.48;94301.81;5143486;28;20037;-75
2022/10/04 06:28:35;;;;;;;;;;;;;;;9.84;61.43;94299.03;5144150;28;20341;-81
2022/10/04 06:31:13;;;;;;;2.35;1.02;;;;;;;9.89;60.91;94300.00;5143529;28;19908;-81
2022/10/04 06:33:39;;;;;;;5.95;1.30;;;;;;;10.09;60.30;94307.56;5143443;27;20043;-81
2022/10/04 06:36:10;;;;;;;2.13;1.10;;;;;;;10.10;60.10;94311.81;5143594;27;20033;-81
2022/10/04 06:38:43;;;;;;;1.35;0.90;;;;;;;10.12;59.74;94298.22;5143495;28;20027;-80
2022/10/04 06:41:35;;;;;;;4.45;1.25;;;;;;;10.16;59.32;94315.97;5145412;27;20035;-80
2022/10/04 06:44:15;;;;;;;4.47;1.53;;;;;;;10.14;58.88;94304.81;5143530;27;20035;-75
2022/10/04 06:46:54;;;;;;;2.22;1.20;;;;;;;10.09;59.37;94318.22;5147680;27;20019;-78
2022/10/04 06:49:25;;;;;;;8.63;1.15;;;;;;;10.29;60.45;94314.34;5147662;27;20019;-78
2022/10/04 06:52:22;;;;;;;2.63;0.90;;;;;;;10.54;58.68;94306.91;5128920;27;20019;-78
2022/10/04 06:54:48;;;;;;;1.40;1.00;;;;;;;10.55;57.23;94319.16;5147499;27;20084;-76
2022/10/04 06:57:21;;;;;;;1.55;0.90;;;;;;;10.59;57.63;94318.25;5147088;27;20051;-76
2022/10/04 07:00:13;;;;;;;7.15;1.23;;;;;;;10.58;58.24;94323.88;5147182;27;20015;-77
2022/10/04 07:03:14;;;;;;;2.40;1.00;;;;;;;10.71;57.66;94315.06;5147280;27;20100;-77
2022/10/04 07:05:39;;;;;;;2.80;1.02;;;;;;;10.64;58.04;94328.00;5147161;27;20124;-77
2022/10/04 07:08:47;;;;;;;2.70;1.35;;;;;;;10.75;58.90;94324.03;5147320;27;20089;-78
2022/10/04 07:11:12;;;;;;;4.85;1.35;;;;;;;10.79;57.82;94324.22;5081327;27;20252;-80
2022/10/04 07:13:55;;;;;;;1.67;1.20;;;;;;;10.69;57.89;94329.78;5146911;27;20022;-77
2022/10/04 07:16:39;;;;;;;1.90;1.10;;;;;;;10.71;57.90;94332.94;5147271;27;20098;-77
2022/10/04 07:19:23;;;;;;;4.32;1.10;;;;;;;10.59;58.11;94336.13;5147145;27;20025;-84
2022/10/04 07:21:54;;;;;;;3.95;1.40;;;;;;;10.57;59.20;94336.41;5146759;27;20035;-83
2022/10/04 07:25:07;;;;;;;5.43;1.47;;;;;;;10.69;57.58;94338.56;5147388;27;20250;-79
2022/10/04 07:31:21;;;;;;;3.40;1.38;;;;;;;10.94;57.89;94345.19;5146833;27;20085;-79
2022/10/04 07:33:55;;;;;;;2.85;1.33;;;;;;;10.96;56.68;94340.31;5141823;27;20057;-80
2022/10/04 07:36:26;;;;;;;4.00;1.25;;;;;;;11.03;56.82;94339.91;5127696;27;20014;-76
2022/10/04 07:39:04;;;;;;;8.35;1.30;;;;;;;11.11;56.50;94359.72;5146658;27;20027;-76
2022/10/04 07:41:47;;;;;;;3.72;0.93;;;;;;;11.06;56.50;94354.53;5146862;27;20034;-78
2022/10/04 07:44:19;;;;;;;6.28;1.27;;;;;;;10.96;57.23;94361.66;5146540;27;20034;-74
2022/10/04 07:46:52;;;;;;;2.22;1.30;;;;;;;10.93;56.09;94342.81;5146843;27;20091;-76
2022/10/04 07:49:20;;;;;;;2.17;1.10;;;;;;;10.90;56.64;94346.88;5146867;27;20091;-76
2022/10/04 07:52:02;;;;;;;1.60;1.02;;;;;;;10.87;55.83;94355.50;5145981;27;20019;-76
2022/10/04 07:54:37;;;;;;;4.18;1.10;;;;;;;10.89;55.90;94355.16;5146676;27;20023;-75
2022/10/04 07:57:34;;;;;;;4.10;1.10;;;;;;;10.96;55.47;94371.56;5146814;27;20225;-75
2022/10/04 08:00:29;;;;;;;4.25;1.67;;;;;;;10.90;55.04;94364.75;5146277;27;20317;-75
2022/10/04 08:03:04;;;;;;;8.05;1.40;;;;;;;10.79;55.69;94366.88;5106900;27;20051;-76
2022/10/04 08:05:35;;;;;;;7.85;1.25;;;;;;;10.82;56.14;94377.72;5146161;27;20094;-76
2022/10/04 08:08:38;;;;;;;2.67;1.30;;;;;;;10.93;55.36;94367.63;5146987;27;20034;-78
2022/10/04 08:11:22;;;;;;;2.92;1.50;;;;;;;10.84;56.43;94377.41;5146179;27;20019;-77
2022/10/04 08:14:19;;;;;;;3.40;1.10;;;;;;;10.96;55.70;94374.22;5146019;27;20034;-77
2022/10/04 08:17:10;;;;;;;4.32;1.35;;;;;;;10.95;56.11;94370.78;5145966;27;20015;-75
2022/10/04 08:19:51;;;;;;;2.70;1.23;;;;;;;10.96;56.72;94383.00;5145909;27;20030;-76
2022/10/04 08:23:06;;;;;;;2.03;1.27;;;;;;;10.97;55.94;94371.25;5145828;27;20370;-77
2022/10/04 08:25:50;;;;;;;2.75;1.20;;;;;;;10.93;56.09;94367.63;5072593;27;20029;-74
2022/10/04 08:32:04;;;;;;;3.63;1.15;;;;;;;11.15;55.43;94355.34;5145614;27;20041;-76
2022/10/04 08:34:32;;;;;;;2.72;1.00;;;;;;;11.41;54.02;94360.84;5114411;27;20157;-76
2022/10/04 08:37:23;;;;;;;2.38;1.00;;;;;;;11.51;53.60;94375.84;5145668;27;20432;-77
2022/10/04 08:40:18;;;;;;;3.15;1.27;;;;;;;11.54;54.07;94359.19;5145751;27;20042;-75
2022/10/04 08:43:06;;;;;;;1.70;0.80;;;;;;;11.59;52.64;94357.19;5145556;27;20046;-74
2022/10/04 08:46:09;;;;;;;2.65;1.20;;;;;;;11.64;52.89;94354.41;5120086;27;20048;-75
2022/10/04 08:49:06;;;;;;;2.65;1.20;;;;;;;11.74;52.60;94368.56;5145322;27;20019;-75
2022/10/04 08:52:04;;;;;;;8.20;1.15;;;;;;;11.60;52.83;94368.66;5145351;27;20118;-76
2022/10/04 08:54:42;;;;;;;2.67;1.10;;;;;;;11.65;53.65;94368.53;5145195;27;20221;-77
2022/10/04 08:57:10;;;;;;;5.72;1.02;;;;;;;11.82;54.14;94371.28;5145204;27;20027;-77
2022/10/04 08:59:57;;;;;;;3.53;0.90;;;;;;;11.85;52.35;94368.00;5145203;27;20027;-75
2022/10/04 09:02:53;;;;;;;2.28;1.10;;;;;;;12.04;52.36;94353.63;5144877;27;20026;-75
2022/10/04 09:05:36;;;;;;;1.67;0.98;;;;;;;12.01;51.98;94354.25;5145102;27;20023;-78
2022/10/04 09:08:32;;;;;;;2.90;1.15;;;;;;;12.15;53.01;94346.91;5144938;27;20320;-77
2022/10/04 09:11:16;;;;;;;2.63;1.23;;;;;;;12.03;51.81;94352.06;5144950;27;20019;-78
2022/10/04 09:14:19;;;;;;;3.85;1.10;;;;;;;11.94;51.85;94345.91;5144275;27;20015;-78
2022/10/04 09:16:47;;;;;;;3.47;1.00;;;;;;;11.93;52.86;94350.44;5144846;27;20031;-78
2022/10/04 09:19:32;;;;;;;3.40;1.23;;;;;;;12.12;52.72;94352.88;5143912;27;20055;-78
2022/10/04 09:22:14;;;;;;;6.97;1.20;;;;;;;12.14;52.72;94348.00;5144570;27;20055;-76
2022/10/04 09:24:55;;;;;;;3.83;1.40;;;;;;;12.31;51.91;94349.13;5143862;27;20064;-76
2022/10/04 09:27:50;;;;;;;6.75;2.22;;;;;;;12.61;52.67;94348.22;5143084;27;20301;-76
2022/10/04 09:30:20;;;;;;;3.67;1.02;;;;;;;12.66;49.17;94358.00;5142795;27;20265;-78
2022/10/04 09:33:06;;;;;;;5.95;0.80;;;;;;;12.67;50.24;94356.91;5142583;27;20150;-77
2022/10/04 09:35:46;;;;;;;10.73;3.15;;;;;;;12.78;51.12;94366.19;5143372;27;20091;-78
2022/10/04 09:38:31;;;;;;;2.38;1.08;;;;;;;12.79;50.59;94358.94;5143342;27;20023;-78
2022/10/04 09:41:33;;;;;;;2.90;1.35;;;;;;;12.62;50.93;94360.50;5144259;27;20102;-78
2022/10/04 09:44:32;;;;;;;1.65;1.02;;;;;;;12.68;51.96;94358.47;5144461;27;20090;-78
2022/10/04 09:47:29;;;;;;;1.75;0.80;;;;;;;12.78;49.78;94365.38;5144491;27;20216;-77
2022/10/04 09:50:17;;;;;;;5.00;2.47;;;;;;;12.98;49.82;94372.78;5144355;27;20054;-78
2022/10/04 09:52:57;;;;;;;3.80;1.25;;;;;;;13.08;48.86;94349.50;5144368;27;20035;-77
2022/10/04 09:55:42;;;;;;;2.30;1.17;;;;;;;13.28;49.54;94361.44;5144090;27;20031;-78
2022/10/04 09:58:10;;;;;;;7.72;0.93;;;;;;;13.12;49.84;94361.94;5144189;27;20019;-78
2022/10/04 10:00:59;;;;;;;3.10;1.10;;;;;;;13.08;49.83;94360.19;5143933;27;20026;-78
2022/10/04 10:03:42;;;;;;;2.03;0.90;;;;;;;13.09;49.72;94354.53;5144209;27;20065;-77
2022/10/04 10:06:30;;;;;;;2.50;1.40;;;;;;;13.05;49.58;94357.06;5143802;27;20060;-77
2022/10/04 10:09:18;;;;;;;1.35;0.95;;;;;;;13.04;50.22;94344.00;5143863;27;20329;-77
2022/10/04 10:15:04;;;;;;;2.83;1.33;;;;;;;12.92;49.94;94366.03;5144122;27;20064;-78
2022/10/04 10:17:50;;;;;;;2.63;1.10;;;;;;;12.92;49.80;94374.03;5143942;27;20377;-78
2022/10/04 10:20:53;;;;;;;5.07;1.33;;;;;;;12.92;50.02;94374.03;5125521;28;20369;-78
2022/10/04 10:23:46;;;;;;;1.42;1.10;;;;;;;12.86;50.91;94364.59;5143930;28;20031;-78
2022/10/04 10:26:30;;;;;;;2.00;0.80;;;;;;;12.94;48.62;94363.03;5143779;28;20023;-78
2022/10/04 10:29:17;;;;;;;12.77;1.27;;;;;;;12.83;50.01;94366.03;5143617;28;20262;-78
2022/10/04 10:31:55;;;;;;;1.70;1.23;;;;;;;13.05;49.74;94370.44;5143812;27;20037;-77
2022/10/04 10:34:42;;;;;;;1.98;1.05;;;;;;;13.11;49.41;94359.56;5143786;28;20023;-76
2022/10/04 10:37:24;;;;;;;2.28;1.10;;;;;;;13.23;50.12;94359.72;5143689;28;20023;-76
2022/10/04 10:39:58;;;;;;;2.75;1.52;;;;;;;13.56;50.00;94376.06;5143967;27;20033;-77
2022/10/04 10:42:52;;;;;;;1.35;1.10;;;;;;;13.72;48.54;94380.91;5144052;28;20023;-77
2022/10/04 10:45:23;;;;;;;1.65;1.15;;;;;;;13.56;48.56;94360.00;5143905;28;20087;-77
2022/10/04 10:47:52;;;;;;;2.10;1.17;;;;;;;13.50;48.96;94376.56;5143729;27;20395;-77
2022/10/04 10:50:26;;;;;;;1.77;1.30;;;;;;;13.51;49.22;94378.13;5143136;28;20015;-75
2022/10/04 10:53:09;;;;;;;3.45;1.20;;;;;;;13.52;47.88;94375.13;5143642;28;20103;-75
2022/10/04 10:55:53;;;;;;;3.92;1.33;;;;;;;13.68;48.82;94372.75;5142441;27;20026;-76
2022/10/04 10:58:40;;;;;;;3.38;1.52;;;;;;;13.94;47.50;94385.25;5143622;28;20039;-76
2022/10/04 11:01:29;;;;;;;3.03;1.20;;;;;;;13.93;47.19;94391.72;5143621;28;20374;-76
2022/10/04 11:04:16;;;;;;;3.50;1.25;;;;;;;13.70;47.20;94370.53;5143748;28;20019;-76
2022/10/04 11:07:03;;;;;;;4.30;1.45;;;;;;;13.62;47.47;94385.50;5143430;28;20312;-75
2022/10/04 11:09:31;;;;;;;1.75;1.20;;;;;;;13.43;48.97;94377.84;5143456;28;20019;-75
2022/10/04 11:11:59;;;;;;;5.22;1.55;;;;;;;13.58;48.40;94384.56;5143610;27;20027;-76
2022/10/04 11:14:54;;;;;;;2.88;1.00;;;;;;;13.47;48.37;94379.88;5143550;27;20100;-77
2022/10/04 11:17:36;;;;;;;4.55;1.38;;;;;;;13.38;49.17;94382.56;5143807;27;20034;-75
2022/10/04 11:20:15;;;;;;;4.55;1.45;;;;;;;13.35;48.35;94383.19;5143307;27;20212;-78
2022/10/04 11:22:44;;;;;;;2.05;1.35;;;;;;;13.20;49.19;94374.50;5143434;27;20058;-77
2022/10/04 11:25:28;;;;;;;1.60;1.00;;;;;;;13.21;48.46;94383.34;5143323;28;20340;-78
2022/10/04 11:28:01;;;;;;;2.90;1.50;;;;;;;13.16;49.46;94378.16;5146520;27;20026;-77
2022/10/04 11:31:01;;;;;;;7.68;1.77;;;;;;;13.12;48.90;94393.25;5146992;27;20036;-76
2022/10/04 11:34:01;;;;;;;3.33;1.70;;;;;;;13.03;50.70;94379.88;5146913;27;20054;-76
2022/10/04 11:37:09;;;;;;;2.13;1.48;;;;;;;12.94;51.30;94382.53;5142741;27;20035;-77
2022/10/04 11:40:11;;;;;;;1.48;0.90;;;;;;;13.01;49.27;94377.53;5135789;27;20034;-76
2022/10/04 11:43:03;;;;;;;2.67;1.00;;;;;;;13.23;50.06;94389.19;5146946;27;20072;-77
2022/10/04 11:45:35;;;;;;;5.40;1.58;;;;;;;13.31;48.68;94382.25;5146493;27;20031;-75
2022/10/04 11:48:12;;;;;;;2.53;1.30;;;;;;;13.41;48.52;94374.69;5146713;27;20019;-75
2022/10/04 11:51:11;;;;;;;3.08;1.42;;;;;;;13.48;49.41;94384.91;5146519;27;20023;-76
2022/10/04 11:54:26;;;;;;;2.60;1.20;;;;;;;13.50;48.77;94381.91;5146995;27;20045;-78
2022/10/04 11:57:30;;;;;;;1.88;1.27;;;;;;;13.81;50.03;94385.13;5146657;27;20023;-76
2022/10/04 12:00:14;;;;;;;2.97;1.40;;;;;;;14.06;47.43;94393.41;5146520;27;20206;-77
2022/10/04 12:03:13;;;;;;;3.08;1.33;;;;;;;14.02;46.51;94392.47;5146487;27;20024;-74
2022/10/04 12:05:50;;;;;;;4.43;1.55;;;;;;;14.10;46.79;94383.59;5146451;27;20023;-75
2022/10/04 12:08:32;;;;;;;4.55;1.25;;;;;;;13.98;46.63;94389.66;5146278;27;20019;-77
2022/10/04 12:11:08;;;;;;;3.67;1.40;;;;;;;13.93;47.59;94383.69;5146285;27;20026;-75
2022/10/04 12:14:23;;;;;;;5.70;1.85;;;;;;;13.84;47.08;94381.81;5146377;27;20035;-76
2022/10/04 12:17:24;;;;;;;3.95;1.60;;;;;;;13.97;46.65;94395.34;5084913;27;20110;-76
2022/10/04 12:20:27;;;;;;;2.58;1.40;;;;;;;13.90;47.44;94385.13;5145978;27;20111;-76
2022/10/04 12:22:55;;;;;;;1.90;1.20;;;;;;;13.94;47.75;94387.94;5145911;27;20054;-74
2022/10/04 12:25:58;;;;;;;4.93;1.30;;;;;;;13.93;47.68;94381.78;5146170;27;20182;-76
2022/10/04 12:28:38;;;;;;;2.03;1.13;;;;;;;14.03;47.39;94386.00;5145688;27;20015;-74
2022/10/04 12:31:03;;;;;;;3.35;1.55;;;;;;;14.19;46.99;94381.69;5145722;27;20102;-76
2022/10/04 12:33:33;;;;;;;1.63;1.00;;;;;;;14.17;47.40;94383.91;5145742;27;20019;-72
2022/10/04 12:36:19;;;;;;;1.10;0.88;;;;;;;14.32;46.08;94389.81;5145584;27;20337;-73
2022/10/04 12:39:01;;;;;;;1.80;1.20;;;;;;;14.28;45.95;94384.31;5145387;27;20034;-74
2022/10/04 12:41:35;;;;;;;4.80;1.10;;;;;;;14.41;46.91;94387.88;5145576;27;20035;-74
2022/10/04 12:44:28;;;;;;;1.67;0.90;;;;;;;14.58;45.88;94387.03;5145296;27;20025;-76
2022/10/04 12:47:27;;;;;;;1.60;0.98;;;;;;;14.64;45.65;94380.38;5127187;27;20216;-79
2022/10/04 12:50:06;;;;;;;4.38;1.10;;;;;;;14.57;45.97;94383.56;5126928;27;20305;-77
2022/10/04 12:53:08;;;;;;;2.65;1.30;;;;;;;14.44;45.42;94389.91;5145436;27;20047;-77